Portada
METAR-TAF:

METAR-TAF

Aeroports :

Bangalore, Índia

latitud: 12-57-00N, longitud: 077-40-06E, altitud: 888 m

Observació

L'informe es va fer fa 18 minuts, a les 16:00 UTC
Vent 10 kt del Oest/Sud-Oest
Temperatura 22°C
Humitat 94%
Pressió 1011 hPa
Visibilitat: 6000 m
Núvols disperses a una alçada de 1000 ft
Cel ennuvolat a una alçada de 8000 ft

METAR: VOBG 251600Z 25010KT 6000 SCT010 BKN080 22/21 Q1011 NOSIG

Hora: 21:48 (16:18 UTC)

Pronòstic

L'informe es va fer fa 2 hores i 18 minuts, a les 14:00 UTC
Pronòstic vàlid del 25 a les 15 UTC al 25 a les 24 UTC
Vent 10 kt del Oest
Visibilitat: 6000 m
Núvols disperses a una alçada de 800 ft
Núvols disperses a una alçada de 1200 ft
Cel ennuvolat a una alçada de 8000 ft
Temporalment
l' 25 a les 15 UTC al 25 a les 21 UTC
Visibilitat: 3000 m
pluja, plugim,

TAF: VOBG 251400Z 2515/2524 27010KT 6000 SCT008 SCT012 BKN080 TEMPO 2515/2521 3000 RA DZ

Observacions i pronòstics meteorològics de més de 4000 aeroports (METAR i TAF).

Les estacions disponibles són els punts grocs i vermells al mapa.

Posi el ratolí al punt desitjat per veure el nom de l'estació.

Feu clic per veure les observacions i els pronòstics meteorològics.

Per canviar el mapa: feu clic els botons verds amb una creu de color negre per apropar; al botó verd amb un guió per allunyar la imatge; o en les fletxes verdes per a mapes adjacents.


METAR-TAF: